createdAt,value
2017-07-24T00:01:42.287Z,14.70
2017-07-24T00:04:09.811Z,14.70
2017-07-24T00:06:37.337Z,14.70
2017-07-24T00:09:04.856Z,14.60
2017-07-24T00:11:32.390Z,14.60
2017-07-24T00:13:59.903Z,14.60
2017-07-24T00:16:27.441Z,14.40
2017-07-24T00:18:54.958Z,14.30
2017-07-24T00:21:22.501Z,14.30
2017-07-24T00:23:50.018Z,14.30
2017-07-24T00:26:17.561Z,14.20
2017-07-24T00:28:45.073Z,14.30
2017-07-24T00:31:13.354Z,14.30
2017-07-24T00:33:40.886Z,14.30
2017-07-24T00:36:08.406Z,14.30
2017-07-24T00:38:35.946Z,14.30
2017-07-24T00:41:03.458Z,14.30
2017-07-24T00:43:30.995Z,14.30
2017-07-24T00:45:58.513Z,14.20
2017-07-24T00:48:26.056Z,14.10
2017-07-24T00:50:53.570Z,14.00
2017-07-24T00:53:21.101Z,13.90
2017-07-24T00:55:48.634Z,13.80
2017-07-24T00:58:16.174Z,13.80
2017-07-24T01:00:44.458Z,13.80
2017-07-24T01:03:12.765Z,13.90
2017-07-24T01:05:40.290Z,13.80
2017-07-24T01:08:08.588Z,13.90
2017-07-24T01:10:36.121Z,13.90
2017-07-24T01:13:03.636Z,13.90
2017-07-24T01:15:31.166Z,13.90
2017-07-24T01:17:58.691Z,13.80
2017-07-24T01:20:26.236Z,13.80
2017-07-24T01:22:53.756Z,13.70
2017-07-24T01:25:21.290Z,13.70
2017-07-24T01:27:48.818Z,13.70
2017-07-24T01:30:16.354Z,13.60
2017-07-24T01:32:43.869Z,13.60
2017-07-24T01:35:11.407Z,13.60
2017-07-24T01:37:38.926Z,13.70
2017-07-24T01:40:07.210Z,13.80
2017-07-24T01:42:34.744Z,13.80
2017-07-24T01:45:02.260Z,13.90
2017-07-24T01:47:30.561Z,14.00
2017-07-24T01:49:58.082Z,14.00
2017-07-24T01:52:25.627Z,14.10
2017-07-24T01:54:53.142Z,14.10
2017-07-24T01:57:20.675Z,14.00
2017-07-24T01:59:48.198Z,14.00
2017-07-24T02:02:15.738Z,14.10
2017-07-24T02:04:44.017Z,14.00
2017-07-24T02:07:11.529Z,14.00
2017-07-24T02:09:39.066Z,14.00
2017-07-24T02:12:06.583Z,14.00
2017-07-24T02:14:34.893Z,14.10
2017-07-24T02:17:03.173Z,14.20
2017-07-24T02:19:30.706Z,14.20
2017-07-24T02:21:58.994Z,14.20
2017-07-24T02:24:26.527Z,14.20
2017-07-24T02:26:54.048Z,14.20
2017-07-24T02:29:22.353Z,14.10
2017-07-24T02:31:49.888Z,14.10
2017-07-24T02:34:17.416Z,14.10
2017-07-24T02:36:45.713Z,14.00
2017-07-24T02:39:13.232Z,14.00
2017-07-24T02:41:40.770Z,14.10
2017-07-24T02:44:08.289Z,14.10
2017-07-24T02:46:35.826Z,14.10
2017-07-24T02:49:03.341Z,14.10
2017-07-24T02:51:30.873Z,14.10
2017-07-24T02:53:58.389Z,14.10
2017-07-24T02:56:26.701Z,14.00
2017-07-24T02:58:54.214Z,14.00
2017-07-24T03:01:21.726Z,13.90
2017-07-24T03:03:49.258Z,13.90
2017-07-24T03:06:16.771Z,13.90
2017-07-24T03:08:44.310Z,13.90
2017-07-24T03:11:11.826Z,13.90
2017-07-24T03:13:39.358Z,14.00
2017-07-24T03:16:06.881Z,14.00
2017-07-24T03:18:34.423Z,14.00
2017-07-24T03:21:01.942Z,14.00
2017-07-24T03:23:29.486Z,14.00
2017-07-24T03:25:57.003Z,14.00
2017-07-24T03:28:24.527Z,14.10
2017-07-24T03:30:52.068Z,14.00
2017-07-24T03:33:19.589Z,14.10
2017-07-24T03:35:47.121Z,14.00
2017-07-24T03:38:15.402Z,13.90
2017-07-24T03:40:42.948Z,13.80
2017-07-24T03:43:10.469Z,13.80
2017-07-24T03:45:38.009Z,13.80
2017-07-24T03:48:05.533Z,13.80
2017-07-24T03:50:33.067Z,13.80
2017-07-24T03:53:00.591Z,13.80
2017-07-24T03:55:28.135Z,13.80
2017-07-24T03:57:55.663Z,13.80
2017-07-24T04:00:23.949Z,14.00
2017-07-24T04:02:51.482Z,13.90
2017-07-24T04:05:19.777Z,14.10
2017-07-24T04:07:47.322Z,14.10
2017-07-24T04:10:14.856Z,14.00
2017-07-24T04:12:42.390Z,14.00
2017-07-24T04:15:09.911Z,14.00
2017-07-24T04:17:37.446Z,13.90
2017-07-24T04:20:05.733Z,14.00
2017-07-24T04:22:34.039Z,14.00
2017-07-24T04:25:01.582Z,14.00
2017-07-24T04:27:29.126Z,14.10
2017-07-24T04:29:56.642Z,14.20
2017-07-24T04:32:24.955Z,14.10
2017-07-24T04:34:53.270Z,14.00
2017-07-24T04:37:20.806Z,14.00
2017-07-24T04:39:49.111Z,13.90
2017-07-24T04:42:16.630Z,13.90
2017-07-24T04:44:44.182Z,13.90
2017-07-24T04:47:11.709Z,14.00
2017-07-24T04:49:39.251Z,14.00
2017-07-24T04:52:06.770Z,14.00
2017-07-24T04:54:35.076Z,14.10
2017-07-24T04:57:02.861Z,14.10
2017-07-24T04:59:31.400Z,14.20
2017-07-24T05:01:58.935Z,14.10
2017-07-24T05:04:26.450Z,14.20
2017-07-24T05:06:54.758Z,14.20
2017-07-24T05:09:22.278Z,14.20
2017-07-24T05:11:49.819Z,14.30
2017-07-24T05:14:17.339Z,14.40
2017-07-24T05:16:44.878Z,14.50
2017-07-24T05:19:12.399Z,14.60
2017-07-24T05:21:39.944Z,14.70
2017-07-24T05:24:07.462Z,14.70
2017-07-24T05:26:35.003Z,14.70
2017-07-24T05:29:02.523Z,14.80
2017-07-24T05:31:30.100Z,14.90
2017-07-24T05:33:57.629Z,15.00
2017-07-24T05:36:25.183Z,15.10
2017-07-24T05:38:52.702Z,15.20
2017-07-24T05:41:20.218Z,15.20
2017-07-24T05:43:47.754Z,15.20
2017-07-24T05:46:15.270Z,15.20
2017-07-24T05:48:42.811Z,15.10
2017-07-24T05:51:10.331Z,15.20
2017-07-24T05:53:37.879Z,15.30
2017-07-24T05:56:05.399Z,15.40
2017-07-24T05:58:32.933Z,15.40
2017-07-24T06:01:00.461Z,15.30
2017-07-24T06:03:28.002Z,15.30
2017-07-24T06:05:56.297Z,15.40
2017-07-24T06:08:23.855Z,15.30
2017-07-24T06:10:52.138Z,15.60
2017-07-24T06:13:19.667Z,15.60
2017-07-24T06:15:47.212Z,15.70
2017-07-24T06:18:14.735Z,15.80
2017-07-24T06:20:42.269Z,15.80
2017-07-24T06:23:10.552Z,15.80
2017-07-24T06:25:38.090Z,15.70
2017-07-24T06:28:05.610Z,15.80
2017-07-24T06:30:33.920Z,15.80
2017-07-24T06:33:01.437Z,15.80
2017-07-24T06:35:28.983Z,15.80
2017-07-24T06:37:56.499Z,15.80
2017-07-24T06:40:24.043Z,15.80
2017-07-24T06:42:51.562Z,15.80
2017-07-24T06:45:19.074Z,15.90
2017-07-24T06:47:46.619Z,15.90
2017-07-24T06:50:14.135Z,15.80
2017-07-24T06:52:41.665Z,15.80
2017-07-24T06:55:09.179Z,15.70
2017-07-24T06:57:36.710Z,15.70
2017-07-24T07:00:04.236Z,15.70
2017-07-24T07:02:31.776Z,15.70
2017-07-24T07:04:59.298Z,15.60
2017-07-24T07:07:26.841Z,15.60
2017-07-24T07:09:55.194Z,15.60
2017-07-24T07:12:22.749Z,15.50
2017-07-24T07:14:50.265Z,15.60
2017-07-24T07:17:17.782Z,15.70
2017-07-24T07:19:45.325Z,15.70
2017-07-24T07:22:12.841Z,15.70
2017-07-24T07:24:40.382Z,15.70
2017-07-24T07:27:07.900Z,15.70
2017-07-24T07:29:35.445Z,15.70
2017-07-24T07:32:02.967Z,15.80
2017-07-24T07:34:30.520Z,15.90
2017-07-24T07:36:58.046Z,16.00
2017-07-24T07:39:26.375Z,16.20
2017-07-24T07:41:53.900Z,16.20
2017-07-24T07:44:22.186Z,16.00
2017-07-24T07:46:49.723Z,16.00
2017-07-24T07:49:17.239Z,16.00
2017-07-24T07:51:45.544Z,16.00
2017-07-24T07:54:13.069Z,15.90
2017-07-24T07:56:40.606Z,16.00
2017-07-24T07:59:08.130Z,16.10
2017-07-24T08:01:35.673Z,16.20
2017-07-24T08:04:03.198Z,16.30
2017-07-24T08:06:31.514Z,16.50
2017-07-24T08:08:59.060Z,16.40
2017-07-24T08:11:26.580Z,16.50
2017-07-24T08:13:54.121Z,16.50
2017-07-24T08:16:22.411Z,16.60
2017-07-24T08:18:49.947Z,16.60
2017-07-24T08:21:18.236Z,16.60
2017-07-24T08:23:45.778Z,16.60
2017-07-24T08:26:13.310Z,16.60
2017-07-24T08:28:40.845Z,16.50
2017-07-24T08:31:08.367Z,16.40
2017-07-24T08:33:35.910Z,16.30
2017-07-24T08:36:03.438Z,16.30
2017-07-24T08:38:31.765Z,16.50
2017-07-24T08:40:59.288Z,16.50
2017-07-24T08:43:26.810Z,16.60
2017-07-24T08:45:55.125Z,16.50
2017-07-24T08:48:22.655Z,16.50
2017-07-24T08:50:50.199Z,16.50
2017-07-24T08:53:18.482Z,16.40
2017-07-24T08:55:46.019Z,16.40
2017-07-24T08:58:13.555Z,16.30
2017-07-24T09:00:41.874Z,16.30
2017-07-24T09:03:09.399Z,16.30
2017-07-24T09:05:37.698Z,16.50
2017-07-24T09:08:05.225Z,16.40
2017-07-24T09:10:32.766Z,16.40
2017-07-24T09:13:00.282Z,16.40
2017-07-24T09:15:27.794Z,16.30
2017-07-24T09:17:55.334Z,16.20
2017-07-24T09:20:22.860Z,16.20
2017-07-24T09:22:50.398Z,16.10
2017-07-24T09:25:17.909Z,16.20
2017-07-24T09:27:45.445Z,16.10
2017-07-24T09:30:13.730Z,16.20
2017-07-24T09:32:41.270Z,16.10
2017-07-24T09:35:08.791Z,16.20
2017-07-24T09:37:37.100Z,16.30
2017-07-24T09:40:04.622Z,16.30
2017-07-24T09:42:32.143Z,16.30
2017-07-24T09:44:59.692Z,16.30
2017-07-24T09:47:27.223Z,16.30
2017-07-24T09:49:54.761Z,16.20
2017-07-24T09:52:22.282Z,16.20
2017-07-24T09:54:49.819Z,16.10
2017-07-24T09:57:17.339Z,16.00
2017-07-24T09:59:44.874Z,15.90
2017-07-24T10:02:13.163Z,15.90
2017-07-24T10:04:40.706Z,15.90
2017-07-24T10:07:08.222Z,15.90
2017-07-24T10:09:35.734Z,16.00
2017-07-24T10:12:03.274Z,16.00
2017-07-24T10:14:30.790Z,16.10
2017-07-24T10:16:58.333Z,16.00
2017-07-24T10:19:25.851Z,15.90
2017-07-24T10:21:54.151Z,15.80
2017-07-24T10:24:21.672Z,15.80
2017-07-24T10:26:49.210Z,15.80
2017-07-24T10:29:16.739Z,15.90
2017-07-24T10:31:44.274Z,16.00
2017-07-24T10:34:11.790Z,16.20
2017-07-24T10:36:40.156Z,16.40
2017-07-24T10:39:07.686Z,16.40
2017-07-24T10:41:35.226Z,16.50
2017-07-24T10:44:02.747Z,16.40
2017-07-24T10:46:30.263Z,16.40
2017-07-24T10:48:58.568Z,16.50
2017-07-24T10:51:26.085Z,16.50
2017-07-24T10:53:53.625Z,16.40
2017-07-24T10:56:21.142Z,16.50
2017-07-24T10:58:48.680Z,16.50
2017-07-24T11:01:16.194Z,16.70
2017-07-24T11:03:43.731Z,16.90
2017-07-24T11:06:11.264Z,16.90
2017-07-24T11:08:38.800Z,17.00
2017-07-24T11:11:06.323Z,17.10
2017-07-24T11:13:34.646Z,17.40
2017-07-24T11:16:02.927Z,17.40
2017-07-24T11:18:30.443Z,17.40
2017-07-24T11:20:57.986Z,17.30
2017-07-24T11:23:25.508Z,17.20
2017-07-24T11:25:53.046Z,17.00
2017-07-24T11:28:20.562Z,16.90
2017-07-24T11:30:48.103Z,17.00
2017-07-24T11:33:16.390Z,17.70
2017-07-24T11:35:43.930Z,17.60
2017-07-24T11:38:11.449Z,18.30
2017-07-24T11:40:38.981Z,19.00
2017-07-24T11:43:06.505Z,19.30
2017-07-24T11:45:34.817Z,19.20
2017-07-24T11:48:02.366Z,19.20
2017-07-24T11:50:30.010Z,19.00
2017-07-24T11:52:57.536Z,18.80
2017-07-24T11:55:25.081Z,18.60
2017-07-24T11:57:52.594Z,18.60
2017-07-24T12:00:20.889Z,18.80
2017-07-24T12:02:48.424Z,18.70
2017-07-24T12:05:15.945Z,18.60
2017-07-24T12:07:43.477Z,18.30
2017-07-24T12:10:11.762Z,17.60
2017-07-24T12:12:39.295Z,17.60
2017-07-24T12:15:06.813Z,17.10
2017-07-24T12:17:35.153Z,16.60
2017-07-24T12:20:03.439Z,16.50
2017-07-24T12:22:30.984Z,16.50
2017-07-24T12:24:58.518Z,16.30
2017-07-24T12:27:26.047Z,16.00
2017-07-24T12:29:54.346Z,15.60
2017-07-24T12:32:21.858Z,15.60
2017-07-24T12:34:49.399Z,15.50
2017-07-24T12:37:16.942Z,15.40
2017-07-24T12:39:44.479Z,15.30
2017-07-24T12:42:12.013Z,15.10
2017-07-24T12:44:39.556Z,15.00
2017-07-24T12:47:07.079Z,14.80
2017-07-24T12:49:34.625Z,14.80
2017-07-24T12:52:02.164Z,14.70
2017-07-24T12:54:29.682Z,14.60
2017-07-24T12:56:57.228Z,14.60
2017-07-24T12:59:24.741Z,14.70
2017-07-24T13:01:52.286Z,14.80
2017-07-24T13:04:19.807Z,15.00
2017-07-24T13:06:47.346Z,15.10
2017-07-24T13:09:14.867Z,15.20
2017-07-24T13:11:43.178Z,15.30
2017-07-24T13:14:10.694Z,15.30
2017-07-24T13:16:38.235Z,15.50
2017-07-24T13:19:05.758Z,15.60
2017-07-24T13:21:33.355Z,15.70
2017-07-24T13:24:00.871Z,16.10
2017-07-24T13:26:28.382Z,16.30
2017-07-24T13:28:55.928Z,16.50
2017-07-24T13:31:23.452Z,16.70
2017-07-24T13:33:50.985Z,16.90
2017-07-24T13:36:18.503Z,16.90
2017-07-24T13:38:46.045Z,17.30
2017-07-24T13:41:13.562Z,17.40
2017-07-24T13:43:41.102Z,17.70
2017-07-24T13:46:08.622Z,18.20
2017-07-24T13:48:36.169Z,18.10
2017-07-24T13:51:03.686Z,18.00
2017-07-24T13:53:31.242Z,18.30
2017-07-24T13:55:58.772Z,18.80
2017-07-24T13:58:26.296Z,19.10
2017-07-24T14:00:53.834Z,19.10
2017-07-24T14:03:21.378Z,19.10
2017-07-24T14:05:48.920Z,19.00
2017-07-24T14:08:16.437Z,18.90
2017-07-24T14:10:43.982Z,18.80
2017-07-24T14:13:11.503Z,18.60
2017-07-24T14:15:39.042Z,18.40
2017-07-24T14:18:07.342Z,18.00
2017-07-24T14:20:34.901Z,18.00
2017-07-24T14:23:02.428Z,18.20
2017-07-24T14:25:29.949Z,18.50
2017-07-24T14:27:58.251Z,19.40
2017-07-24T14:30:25.771Z,19.40
2017-07-24T14:32:53.306Z,19.80
2017-07-24T14:35:20.831Z,20.00
2017-07-24T14:37:48.367Z,20.30
2017-07-24T14:40:15.882Z,20.60
2017-07-24T14:42:43.416Z,20.50
2017-07-24T14:45:10.939Z,20.10
2017-07-24T14:47:38.514Z,20.00
2017-07-24T14:50:06.106Z,19.60
2017-07-24T14:52:33.634Z,19.40
2017-07-24T14:55:01.262Z,19.10
2017-07-24T14:57:28.782Z,19.30
2017-07-24T14:59:57.083Z,19.80
2017-07-24T15:02:25.362Z,20.10
2017-07-24T15:04:52.897Z,20.10
2017-07-24T15:07:20.419Z,20.20
2017-07-24T15:09:47.960Z,20.20
2017-07-24T15:12:15.476Z,19.50
2017-07-24T15:14:43.019Z,19.20
2017-07-24T15:17:10.543Z,18.80
2017-07-24T15:19:38.063Z,18.60
2017-07-24T15:22:06.370Z,18.60
2017-07-24T15:24:33.889Z,18.60
2017-07-24T15:27:01.426Z,18.70
2017-07-24T15:29:28.948Z,18.90
2017-07-24T15:31:57.251Z,19.20
2017-07-24T15:34:24.770Z,19.20
2017-07-24T15:36:53.074Z,19.10
2017-07-24T15:39:20.594Z,19.10
2017-07-24T15:41:48.143Z,19.20
2017-07-24T15:44:15.667Z,19.30
2017-07-24T15:46:43.187Z,19.10
2017-07-24T15:49:10.723Z,18.80
2017-07-24T15:51:39.013Z,18.60
2017-07-24T15:54:07.319Z,18.50
2017-07-24T15:56:34.838Z,18.50
2017-07-24T15:59:03.142Z,18.90
2017-07-24T16:01:30.663Z,18.90
2017-07-24T16:03:58.203Z,19.30
2017-07-24T16:06:25.729Z,19.50
2017-07-24T16:08:54.044Z,19.60
2017-07-24T16:11:22.331Z,19.50
2017-07-24T16:13:50.629Z,19.20
2017-07-24T16:16:18.171Z,19.20
2017-07-24T16:18:45.694Z,19.20
2017-07-24T16:21:13.231Z,19.30
2017-07-24T16:23:40.757Z,19.20
2017-07-24T16:26:08.298Z,19.20
2017-07-24T16:28:35.828Z,19.10
2017-07-24T16:31:03.367Z,18.90
2017-07-24T16:33:31.649Z,18.90
2017-07-24T16:35:59.538Z,18.90
2017-07-24T16:38:27.062Z,18.90
2017-07-24T16:40:54.603Z,18.90
2017-07-24T16:43:22.141Z,18.80
2017-07-24T16:45:49.654Z,18.60
2017-07-24T16:48:17.529Z,18.40
2017-07-24T16:50:45.055Z,18.20
2017-07-24T16:53:12.598Z,18.10
2017-07-24T16:55:40.120Z,18.00
2017-07-24T16:58:07.675Z,18.00
2017-07-24T17:00:35.190Z,18.10
2017-07-24T17:03:02.726Z,18.10
2017-07-24T17:05:30.242Z,17.90
2017-07-24T17:07:58.538Z,17.60
2017-07-24T17:10:26.075Z,17.60
2017-07-24T17:12:54.356Z,17.30
2017-07-24T17:15:22.680Z,17.30
2017-07-24T17:17:50.195Z,17.30
2017-07-24T17:20:17.741Z,17.30
2017-07-24T17:22:45.257Z,17.30
2017-07-24T17:25:12.794Z,17.40
2017-07-24T17:27:40.310Z,17.60
2017-07-24T17:30:07.863Z,17.80
2017-07-24T17:32:35.379Z,18.00
2017-07-24T17:35:02.918Z,18.10
2017-07-24T17:37:31.206Z,18.00
2017-07-24T17:39:59.526Z,18.00
2017-07-24T17:42:27.041Z,18.00
2017-07-24T17:44:54.566Z,17.90
2017-07-24T17:47:22.106Z,17.80
2017-07-24T17:49:49.627Z,17.70
2017-07-24T17:52:17.162Z,17.70
2017-07-24T17:54:44.681Z,17.70
2017-07-24T17:57:12.221Z,17.60
2017-07-24T17:59:39.741Z,17.60
2017-07-24T18:02:07.298Z,17.50
2017-07-24T18:04:34.814Z,17.50
2017-07-24T18:07:02.356Z,17.40
2017-07-24T18:09:29.881Z,17.30
2017-07-24T18:11:57.432Z,17.30
2017-07-24T18:14:24.956Z,17.30
2017-07-24T18:16:52.479Z,17.20
2017-07-24T18:19:20.018Z,17.20
2017-07-24T18:21:48.302Z,16.90
2017-07-24T18:24:16.610Z,16.80
2017-07-24T18:26:44.134Z,16.80
2017-07-24T18:29:11.675Z,16.70
2017-07-24T18:31:39.198Z,16.60
2017-07-24T18:34:06.743Z,16.60
2017-07-24T18:36:34.263Z,16.40
2017-07-24T18:39:01.802Z,16.40
2017-07-24T18:41:29.322Z,16.30
2017-07-24T18:43:56.867Z,16.30
2017-07-24T18:46:24.387Z,16.20
2017-07-24T18:48:51.911Z,16.10
2017-07-24T18:51:20.213Z,16.00
2017-07-24T18:53:47.731Z,15.90
2017-07-24T18:56:15.270Z,15.90
2017-07-24T18:58:42.792Z,15.70
2017-07-24T19:01:10.340Z,15.70
2017-07-24T19:03:37.863Z,15.60
2017-07-24T19:06:05.413Z,15.50
2017-07-24T19:08:32.940Z,15.50
2017-07-24T19:11:00.503Z,15.50
2017-07-24T19:13:28.029Z,15.50
2017-07-24T19:15:55.558Z,15.40
2017-07-24T19:18:23.095Z,15.30
2017-07-24T19:20:50.615Z,15.10
2017-07-24T19:23:18.155Z,15.00
2017-07-24T19:25:45.671Z,15.00
2017-07-24T19:28:13.216Z,14.90
2017-07-24T19:30:41.501Z,14.80
2017-07-24T19:33:09.047Z,14.80
2017-07-24T19:35:36.567Z,14.80
2017-07-24T19:38:04.115Z,14.80
2017-07-24T19:40:31.638Z,14.80
2017-07-24T19:42:59.923Z,14.80
2017-07-24T19:45:27.464Z,14.80
2017-07-24T19:47:54.994Z,14.90
2017-07-24T19:50:22.539Z,14.90
2017-07-24T19:52:50.059Z,14.90
2017-07-24T19:55:17.603Z,14.90
2017-07-24T19:57:45.890Z,14.90
2017-07-24T20:00:13.438Z,14.90
2017-07-24T20:02:41.724Z,15.00
2017-07-24T20:05:10.036Z,15.00
2017-07-24T20:07:37.560Z,15.00
2017-07-24T20:10:05.125Z,14.90
2017-07-24T20:12:32.645Z,14.90
2017-07-24T20:15:00.187Z,14.80
2017-07-24T20:17:27.731Z,14.90
2017-07-24T20:19:55.255Z,14.90
2017-07-24T20:22:22.802Z,14.80
2017-07-24T20:24:50.323Z,14.80
2017-07-24T20:27:17.866Z,14.80
2017-07-24T20:29:46.147Z,14.50
2017-07-24T20:32:14.447Z,14.50
2017-07-24T20:34:41.970Z,14.50
2017-07-24T20:37:09.507Z,14.50
2017-07-24T20:39:37.123Z,14.50
2017-07-24T20:42:04.686Z,14.50
2017-07-24T20:44:32.977Z,14.40
2017-07-24T20:47:00.495Z,14.40
2017-07-24T20:49:28.032Z,14.40
2017-07-24T20:51:56.326Z,14.20
2017-07-24T20:54:23.872Z,14.20
2017-07-24T20:56:51.387Z,14.20
2017-07-24T20:59:18.923Z,14.20
2017-07-24T21:01:46.459Z,14.10
2017-07-24T21:04:13.998Z,14.20
2017-07-24T21:06:41.516Z,14.10
2017-07-24T21:09:09.067Z,14.10
2017-07-24T21:11:36.592Z,14.10
2017-07-24T21:14:04.900Z,14.10
2017-07-24T21:16:32.416Z,14.10
2017-07-24T21:19:00.705Z,14.10
2017-07-24T21:21:28.251Z,14.10
2017-07-24T21:23:55.780Z,14.10
2017-07-24T21:26:23.323Z,14.10
2017-07-24T21:28:50.856Z,14.20
2017-07-24T21:31:19.159Z,14.10
2017-07-24T21:33:46.678Z,14.10
2017-07-24T21:36:14.987Z,14.00
2017-07-24T21:38:42.513Z,14.00
2017-07-24T21:41:10.056Z,13.90
2017-07-24T21:43:37.582Z,13.90
2017-07-24T21:46:05.898Z,13.90
2017-07-24T21:48:33.418Z,13.90
2017-07-24T21:51:00.942Z,13.80
2017-07-24T21:53:28.486Z,13.80
2017-07-24T21:55:56.771Z,13.70
2017-07-24T21:58:24.366Z,13.70
2017-07-24T22:00:51.891Z,13.70
2017-07-24T22:03:19.426Z,13.70
2017-07-24T22:05:46.946Z,13.60
2017-07-24T22:08:14.489Z,13.60
2017-07-24T22:10:42.001Z,13.60
2017-07-24T22:13:09.548Z,13.60
2017-07-24T22:15:37.064Z,13.60
2017-07-24T22:18:04.605Z,13.60
2017-07-24T22:20:32.897Z,13.70
2017-07-24T22:23:01.190Z,13.70
2017-07-24T22:25:28.738Z,13.70
2017-07-24T22:27:57.032Z,13.70
2017-07-24T22:30:24.567Z,13.70
2017-07-24T22:32:52.083Z,13.70
2017-07-24T22:35:19.619Z,13.70
2017-07-24T22:37:47.135Z,13.70
2017-07-24T22:40:14.670Z,13.70
2017-07-24T22:42:42.954Z,13.80
2017-07-24T22:45:11.264Z,13.80
2017-07-24T22:47:38.783Z,13.80
2017-07-24T22:50:06.327Z,13.80
2017-07-24T22:52:33.846Z,13.80
2017-07-24T22:55:01.362Z,13.80
2017-07-24T22:57:28.903Z,13.80
2017-07-24T22:59:56.425Z,13.80
2017-07-24T23:02:23.960Z,13.80
2017-07-24T23:04:51.483Z,13.70
2017-07-24T23:07:19.023Z,13.70
2017-07-24T23:09:46.534Z,13.70
2017-07-24T23:12:14.066Z,13.70
2017-07-24T23:14:41.586Z,13.70
2017-07-24T23:17:09.123Z,13.80
2017-07-24T23:19:36.638Z,13.80
2017-07-24T23:22:04.183Z,13.80
2017-07-24T23:24:31.708Z,13.80
2017-07-24T23:26:59.246Z,13.80
2017-07-24T23:29:26.791Z,13.80
2017-07-24T23:31:54.312Z,13.80
2017-07-24T23:34:21.851Z,13.80
2017-07-24T23:36:49.374Z,13.80
2017-07-24T23:39:16.922Z,13.80
2017-07-24T23:41:44.454Z,13.80
2017-07-24T23:44:12.034Z,13.80
2017-07-24T23:46:39.571Z,13.80
2017-07-24T23:49:07.092Z,13.80
2017-07-24T23:51:34.637Z,13.80
2017-07-24T23:54:02.162Z,13.80
2017-07-24T23:56:29.699Z,13.80
2017-07-24T23:58:57.218Z,13.80
